Time;durP1;ratioP1;P1;durP2;ratioP2;P2;SDS_P1;SDS_P2;PMS_P1;PMS_P2;Temp;Humidity;BMP_temperature;BMP_pressure;BME280_temperature;BME280_humidity;BME280_pressure;Samples;Min_cycle;Max_cycle;Signal;HPM_P1;HPM_P2
2024/03/15 00:00:17;;;;;;;14.73;13.63;;;8.10;99.90;;;;;;4935646;28;20300;-78
2024/03/15 00:02:45;;;;;;;15.00;13.90;;;8.10;99.90;;;;;;4941500;28;20570;-78
2024/03/15 00:05:12;;;;;;;14.93;13.80;;;8.10;99.90;;;;;;4933701;28;20201;-78
2024/03/15 00:07:39;;;;;;;14.77;13.77;;;8.10;99.90;;;;;;4933277;28;20209;-78
2024/03/15 00:10:07;;;;;;;15.00;13.90;;;8.10;99.90;;;;;;4940650;28;20201;-78
2024/03/15 00:12:34;;;;;;;14.67;13.67;;;8.10;99.90;;;;;;4949944;28;20225;-79
2024/03/15 00:15:01;;;;;;;14.53;13.43;;;8.10;99.90;;;;;;4949003;28;20246;-78
2024/03/15 00:17:28;;;;;;;15.30;14.20;;;8.10;99.90;;;;;;4933488;28;20623;-78
2024/03/15 00:19:56;;;;;;;14.83;13.77;;;8.10;99.90;;;;;;4938061;28;20253;-78
2024/03/15 00:22:23;;;;;;;14.30;13.30;;;8.10;99.90;;;;;;4931165;29;20338;-78
2024/03/15 00:24:50;;;;;;;14.40;13.40;;;8.20;99.90;;;;;;4937809;28;20201;-77
2024/03/15 00:27:17;;;;;;;14.90;13.90;;;8.10;99.90;;;;;;4957134;28;20198;-78
2024/03/15 00:29:44;;;;;;;14.33;13.43;;;8.10;99.90;;;;;;4943846;28;20614;-78
2024/03/15 00:32:11;;;;;;;14.47;13.50;;;8.10;99.90;;;;;;4949173;28;20598;-78
2024/03/15 00:34:39;;;;;;;14.90;13.90;;;8.10;99.90;;;;;;4943772;28;20268;-78
2024/03/15 00:37:08;;;;;;;15.33;14.10;;;8.10;99.90;;;;;;4953074;28;20229;-78
2024/03/15 00:39:35;;;;;;;14.80;13.80;;;8.10;99.90;;;;;;4930500;29;20214;-78
2024/03/15 00:42:02;;;;;;;14.97;13.97;;;8.10;99.90;;;;;;4959734;28;20226;-78
2024/03/15 00:44:29;;;;;;;14.70;13.67;;;8.10;99.90;;;;;;4952215;28;20200;-78
2024/03/15 00:46:56;;;;;;;14.70;13.63;;;8.10;99.90;;;;;;4948042;28;20676;-78
2024/03/15 00:49:23;;;;;;;14.67;13.67;;;8.10;99.90;;;;;;4952467;28;20657;-78
2024/03/15 00:51:50;;;;;;;14.13;13.27;;;8.10;99.90;;;;;;4949689;28;20754;-78
2024/03/15 00:54:17;;;;;;;13.80;12.90;;;8.10;99.90;;;;;;4925359;28;20239;-78
2024/03/15 00:56:44;;;;;;;13.87;12.97;;;8.00;99.90;;;;;;4950372;28;20201;-78
2024/03/15 00:59:11;;;;;;;14.43;13.43;;;8.00;99.90;;;;;;4931458;28;20202;-77
2024/03/15 01:01:39;;;;;;;15.00;13.87;;;8.00;99.90;;;;;;4933738;28;20351;-78
2024/03/15 01:04:05;;;;;;;14.33;13.33;;;8.00;99.90;;;;;;4936475;28;20210;-78
2024/03/15 01:06:32;;;;;;;14.50;13.50;;;8.00;99.90;;;;;;4933896;28;20198;-78
2024/03/15 01:08:59;;;;;;;14.90;13.97;;;7.90;99.90;;;;;;4953206;28;20192;-78
2024/03/15 01:11:28;;;;;;;14.83;13.77;;;7.90;99.90;;;;;;4953601;28;20289;-78
2024/03/15 01:13:57;;;;;;;14.57;13.60;;;7.90;99.90;;;;;;4950681;28;20194;-78
2024/03/15 01:16:24;;;;;;;14.87;13.87;;;7.90;99.90;;;;;;4933604;28;20229;-78
2024/03/15 01:18:53;;;;;;;14.30;13.20;;;7.90;99.90;;;;;;4928487;29;20290;-79
2024/03/15 01:21:22;;;;;;;14.37;13.47;;;7.90;99.90;;;;;;4941166;28;20222;-78
2024/03/15 01:23:49;;;;;;;14.27;13.40;;;7.90;99.90;;;;;;4944040;28;20221;-78
2024/03/15 01:26:16;;;;;;;14.40;13.50;;;8.00;99.90;;;;;;4945124;28;20582;-78
2024/03/15 01:28:43;;;;;;;14.13;13.17;;;8.00;99.90;;;;;;4924705;29;20197;-78
2024/03/15 01:31:10;;;;;;;13.97;13.07;;;8.10;99.90;;;;;;4962077;28;20221;-78
2024/03/15 01:33:37;;;;;;;13.90;13.00;;;8.10;99.90;;;;;;4923095;29;20211;-78
2024/03/15 01:36:04;;;;;;;13.77;12.90;;;8.20;99.90;;;;;;4928173;28;20635;-79
2024/03/15 01:38:31;;;;;;;14.20;13.30;;;8.30;99.90;;;;;;4925650;28;20226;-78
2024/03/15 01:40:58;;;;;;;13.60;12.70;;;8.30;99.90;;;;;;4952069;28;20218;-78
2024/03/15 01:43:25;;;;;;;13.40;12.50;;;8.30;99.90;;;;;;4954469;28;20197;-77
2024/03/15 01:45:52;;;;;;;13.87;12.93;;;8.30;99.90;;;;;;4944561;29;20658;-78
2024/03/15 01:48:20;;;;;;;12.93;12.13;;;8.30;99.90;;;;;;4934242;28;20674;-78
2024/03/15 01:50:48;;;;;;;13.67;12.77;;;8.30;99.90;;;;;;4945544;28;20202;-78
2024/03/15 01:53:16;;;;;;;13.17;12.37;;;8.30;99.90;;;;;;4964513;28;20261;-78
2024/03/15 01:55:42;;;;;;;13.43;12.63;;;8.30;99.90;;;;;;4926211;28;20234;-78
2024/03/15 01:58:09;;;;;;;14.30;13.40;;;8.20;99.90;;;;;;4948755;28;20203;-78
2024/03/15 02:00:37;;;;;;;14.20;13.30;;;8.20;99.90;;;;;;4932155;28;20205;-77
2024/03/15 02:03:04;;;;;;;13.83;12.93;;;8.30;99.90;;;;;;4949485;28;20245;-78
2024/03/15 02:05:32;;;;;;;13.60;12.80;;;8.20;99.90;;;;;;4947478;28;20257;-78
2024/03/15 02:07:59;;;;;;;13.53;12.73;;;8.20;99.90;;;;;;4951780;28;20229;-78
2024/03/15 02:10:26;;;;;;;13.90;13.00;;;8.30;99.90;;;;;;4925995;28;20198;-77
2024/03/15 02:12:53;;;;;;;14.40;13.37;;;8.30;99.90;;;;;;4937174;28;20222;-78
2024/03/15 02:15:20;;;;;;;13.77;12.90;;;8.20;99.90;;;;;;4951738;28;20291;-78
2024/03/15 02:17:47;;;;;;;14.17;13.27;;;8.20;99.90;;;;;;4957525;28;20281;-78
2024/03/15 02:20:15;;;;;;;13.90;13.10;;;8.10;99.90;;;;;;4948750;28;20206;-78
2024/03/15 02:22:44;;;;;;;14.40;13.47;;;8.10;99.90;;;;;;4938919;28;20277;-78
2024/03/15 02:25:11;;;;;;;14.27;13.37;;;8.00;99.90;;;;;;4934314;28;20238;-78
2024/03/15 02:27:39;;;;;;;14.50;13.60;;;7.90;99.90;;;;;;4937986;28;20208;-78
2024/03/15 02:30:07;;;;;;;14.23;13.33;;;7.90;99.90;;;;;;4943488;28;20286;-78
2024/03/15 02:32:34;;;;;;;14.93;13.93;;;7.80;99.90;;;;;;4934963;28;20218;-79
2024/03/15 02:35:01;;;;;;;14.47;13.47;;;7.80;99.90;;;;;;4934034;28;20226;-78
2024/03/15 02:37:28;;;;;;;14.37;13.47;;;7.80;99.90;;;;;;4931335;28;20261;-78
2024/03/15 02:39:55;;;;;;;14.47;13.47;;;7.70;99.90;;;;;;4930073;29;20234;-78
2024/03/15 02:42:22;;;;;;;15.03;14.03;;;7.70;99.90;;;;;;4941370;28;20290;-78
2024/03/15 02:44:49;;;;;;;14.57;13.40;;;7.80;99.90;;;;;;4935195;28;20282;-79
2024/03/15 02:47:15;;;;;;;14.30;13.30;;;7.80;99.90;;;;;;4925079;28;20213;-78
2024/03/15 02:49:42;;;;;;;14.00;13.10;;;7.80;99.90;;;;;;4963980;28;20252;-78
2024/03/15 02:52:09;;;;;;;14.53;13.37;;;7.80;99.90;;;;;;4950908;28;20225;-78
2024/03/15 02:54:37;;;;;;;14.90;14.00;;;7.80;99.90;;;;;;4935585;28;20248;-78
2024/03/15 02:57:05;;;;;;;14.67;13.77;;;7.80;99.90;;;;;;4939575;28;20205;-78
2024/03/15 02:59:32;;;;;;;15.00;13.90;;;7.80;99.90;;;;;;4945166;28;20198;-78
2024/03/15 03:01:59;;;;;;;14.57;13.67;;;7.80;99.90;;;;;;4960309;28;20222;-78
2024/03/15 03:04:26;;;;;;;15.37;14.10;;;7.70;99.90;;;;;;4966262;28;20217;-78
2024/03/15 03:06:53;;;;;;;14.10;13.30;;;7.70;99.90;;;;;;4951129;28;20190;-78
2024/03/15 03:09:20;;;;;;;14.27;13.37;;;7.70;99.90;;;;;;4928585;28;20550;-78
2024/03/15 03:11:47;;;;;;;14.70;13.80;;;7.70;99.90;;;;;;4967145;28;20214;-78
2024/03/15 03:14:14;;;;;;;14.63;13.73;;;7.70;99.90;;;;;;4947026;28;20230;-78
2024/03/15 03:16:42;;;;;;;13.97;13.17;;;7.70;99.90;;;;;;4944828;28;20218;-78
2024/03/15 03:19:09;;;;;;;14.00;13.20;;;7.70;99.90;;;;;;4947650;28;20237;-77
2024/03/15 03:21:36;;;;;;;14.50;13.60;;;7.70;99.90;;;;;;4925345;29;20331;-78
2024/03/15 03:24:04;;;;;;;14.60;13.70;;;7.70;99.90;;;;;;4939224;29;20226;-78
2024/03/15 03:26:31;;;;;;;14.27;13.37;;;7.70;99.90;;;;;;4937875;28;20193;-78
2024/03/15 03:28:58;;;;;;;14.20;13.30;;;7.70;99.90;;;;;;4952329;28;20194;-78
2024/03/15 03:31:25;;;;;;;14.50;13.53;;;7.60;99.90;;;;;;4945909;28;20236;-77
2024/03/15 03:33:52;;;;;;;13.90;13.10;;;7.70;99.90;;;;;;4930216;29;20245;-78
2024/03/15 03:36:19;;;;;;;14.50;13.60;;;7.70;99.90;;;;;;4968885;28;20217;-78
2024/03/15 03:38:47;;;;;;;14.93;13.93;;;7.60;99.90;;;;;;4923914;29;20226;-78
2024/03/15 03:41:14;;;;;;;15.00;14.10;;;7.60;99.90;;;;;;4953057;28;20716;-81
2024/03/15 03:43:43;;;;;;;14.67;13.77;;;7.60;99.90;;;;;;4926274;28;20205;-77
2024/03/15 03:46:12;;;;;;;14.67;13.77;;;7.50;99.90;;;;;;4953179;28;20190;-77
2024/03/15 03:48:39;;;;;;;14.67;13.77;;;7.50;99.90;;;;;;4947935;28;20280;-78
2024/03/15 03:51:06;;;;;;;15.40;14.40;;;7.40;99.90;;;;;;4939956;28;20310;-81
2024/03/15 03:53:33;;;;;;;14.73;13.73;;;7.40;99.90;;;;;;4921190;28;20237;-81
2024/03/15 03:56:01;;;;;;;14.97;13.90;;;7.30;99.90;;;;;;4927760;28;20249;-78
2024/03/15 03:58:28;;;;;;;14.30;13.40;;;7.30;99.90;;;;;;4918291;28;20199;-81
2024/03/15 04:00:55;;;;;;;15.03;14.10;;;7.20;99.90;;;;;;4937020;29;20207;-81
2024/03/15 04:03:22;;;;;;;14.83;13.93;;;7.20;99.90;;;;;;4916410;28;20222;-81
2024/03/15 04:05:49;;;;;;;14.60;13.70;;;7.30;99.90;;;;;;4948926;28;20201;-81
2024/03/15 04:08:17;;;;;;;14.30;13.40;;;7.30;99.90;;;;;;4914978;28;20199;-81
2024/03/15 04:10:44;;;;;;;14.80;13.73;;;7.30;99.90;;;;;;4918244;29;20202;-81
2024/03/15 04:13:11;;;;;;;14.43;13.53;;;7.30;99.90;;;;;;4919663;29;20187;-81
2024/03/15 04:15:38;;;;;;;15.87;14.70;;;7.20;99.90;;;;;;4942816;28;20206;-79
2024/03/15 04:18:05;;;;;;;14.97;13.97;;;7.20;99.90;;;;;;4933480;29;20517;-78
2024/03/15 04:20:33;;;;;;;16.37;15.23;;;7.20;99.90;;;;;;4924757;28;20211;-80
2024/03/15 04:23:00;;;;;;;15.17;14.17;;;7.10;99.90;;;;;;4922488;29;20704;-79
2024/03/15 04:25:27;;;;;;;15.73;14.53;;;7.10;99.90;;;;;;4952729;28;20210;-80
2024/03/15 04:27:53;;;;;;;15.33;14.33;;;7.10;99.90;;;;;;4922862;29;20557;-80
2024/03/15 04:30:22;;;;;;;16.10;14.93;;;7.10;99.90;;;;;;4929648;28;20260;-79
2024/03/15 04:32:49;;;;;;;15.57;14.43;;;7.10;99.90;;;;;;4945858;28;20226;-80
2024/03/15 04:35:17;;;;;;;15.87;14.73;;;7.10;99.90;;;;;;4952567;28;20256;-79
2024/03/15 04:37:45;;;;;;;16.20;15.20;;;7.20;99.90;;;;;;4926332;28;20202;-79
2024/03/15 04:40:14;;;;;;;16.47;15.33;;;7.20;99.90;;;;;;4936778;28;20248;-77
2024/03/15 04:42:41;;;;;;;15.73;14.60;;;7.20;99.90;;;;;;4917367;28;20218;-77
2024/03/15 04:45:09;;;;;;;14.97;13.97;;;7.20;99.90;;;;;;4950424;28;20198;-77
2024/03/15 04:47:37;;;;;;;16.33;15.23;;;7.30;99.90;;;;;;4937647;28;20231;-78
2024/03/15 04:50:05;;;;;;;16.20;15.00;;;7.40;99.90;;;;;;4947717;28;20665;-77
2024/03/15 04:52:33;;;;;;;15.90;14.90;;;7.40;99.90;;;;;;4962230;28;20221;-77
2024/03/15 04:55:00;;;;;;;15.73;14.63;;;7.50;99.90;;;;;;4964904;28;20249;-77
2024/03/15 04:57:27;;;;;;;15.40;14.40;;;7.60;99.90;;;;;;4932221;28;20273;-77
2024/03/15 04:59:54;;;;;;;15.87;14.87;;;7.60;99.90;;;;;;4952906;28;20202;-77
2024/03/15 05:02:22;;;;;;;15.73;14.63;;;7.60;99.90;;;;;;4960338;28;20229;-78
2024/03/15 05:04:49;;;;;;;15.00;14.10;;;7.70;99.90;;;;;;4943344;28;20241;-78
2024/03/15 05:07:16;;;;;;;15.70;14.70;;;7.70;99.90;;;;;;4932006;28;20203;-78
2024/03/15 05:09:43;;;;;;;16.17;15.07;;;7.80;99.90;;;;;;4923554;29;20402;-78
2024/03/15 05:12:10;;;;;;;15.90;14.90;;;7.80;99.90;;;;;;4952325;28;20701;-78
2024/03/15 05:14:37;;;;;;;15.93;14.83;;;7.80;99.90;;;;;;4942347;28;20202;-77
2024/03/15 05:17:04;;;;;;;16.20;15.20;;;7.80;99.90;;;;;;4931350;28;20600;-78
2024/03/15 05:19:30;;;;;;;16.90;15.70;;;7.80;99.90;;;;;;4935374;28;20205;-78
2024/03/15 05:21:58;;;;;;;16.67;15.57;;;7.80;99.90;;;;;;4960610;28;20705;-77
2024/03/15 05:24:26;;;;;;;17.27;16.07;;;7.80;99.90;;;;;;4931558;28;20218;-76
2024/03/15 05:26:53;;;;;;;16.30;15.20;;;7.80;99.90;;;;;;4940399;28;20198;-77
2024/03/15 05:29:20;;;;;;;16.00;14.90;;;7.80;99.90;;;;;;4935095;28;20206;-77
2024/03/15 05:31:47;;;;;;;16.10;15.03;;;7.80;99.90;;;;;;4961641;28;20228;-77
2024/03/15 05:34:15;;;;;;;16.27;15.17;;;7.80;99.90;;;;;;4937070;29;20213;-77
2024/03/15 05:36:42;;;;;;;15.90;14.83;;;7.80;99.90;;;;;;4966210;28;20218;-77
2024/03/15 05:39:10;;;;;;;15.83;14.73;;;7.90;99.90;;;;;;4936566;29;20201;-76
2024/03/15 05:41:38;;;;;;;16.77;15.57;;;7.80;99.90;;;;;;4946566;28;20230;-77
2024/03/15 05:44:05;;;;;;;16.47;15.27;;;7.90;99.90;;;;;;4945630;28;20632;-77
2024/03/15 05:46:32;;;;;;;15.70;14.70;;;7.90;99.90;;;;;;4950277;28;20264;-77
2024/03/15 05:49:00;;;;;;;15.60;14.53;;;7.90;99.90;;;;;;4961281;28;20199;-77
2024/03/15 05:51:27;;;;;;;15.83;14.83;;;7.80;99.90;;;;;;4946732;28;20651;-77
2024/03/15 05:53:55;;;;;;;16.30;15.20;;;7.90;99.90;;;;;;4927002;29;20682;-77
2024/03/15 05:56:24;;;;;;;16.50;15.30;;;7.90;99.90;;;;;;4933440;28;20219;-76
2024/03/15 05:58:51;;;;;;;16.17;15.07;;;8.00;99.90;;;;;;4964073;28;20277;-77
2024/03/15 06:01:18;;;;;;;15.70;14.70;;;8.00;99.90;;;;;;4940666;28;20301;-77
2024/03/15 06:03:45;;;;;;;15.87;14.83;;;8.10;99.90;;;;;;4939927;28;20204;-77
2024/03/15 06:06:12;;;;;;;15.50;14.50;;;8.10;99.90;;;;;;4938081;29;20678;-77
2024/03/15 06:08:41;;;;;;;15.80;14.70;;;8.10;99.90;;;;;;4948720;28;20262;-77
2024/03/15 06:11:08;;;;;;;16.10;15.00;;;8.10;99.90;;;;;;4947834;28;20587;-77
2024/03/15 06:13:35;;;;;;;15.40;14.40;;;8.20;99.90;;;;;;4950109;28;20204;-77
2024/03/15 06:16:04;;;;;;;16.27;15.27;;;8.20;99.90;;;;;;4949380;28;20241;-77
2024/03/15 06:18:33;;;;;;;16.30;14.97;;;8.20;99.90;;;;;;4935740;28;20234;-76
2024/03/15 06:21:00;;;;;;;15.77;14.53;;;8.30;99.90;;;;;;4949297;28;20716;-77
2024/03/15 06:23:28;;;;;;;15.50;14.50;;;8.30;99.90;;;;;;4947481;28;20616;-77
2024/03/15 06:25:55;;;;;;;16.30;14.93;;;8.30;99.90;;;;;;4948006;28;20202;-77
2024/03/15 06:28:22;;;;;;;15.63;14.63;;;8.30;99.90;;;;;;4941581;28;20206;-77
2024/03/15 06:30:53;;;;;;;15.20;14.20;;;8.30;99.90;;;;;;4943972;28;20206;-77
2024/03/15 06:33:20;;;;;;;16.87;15.70;;;8.40;99.90;;;;;;4938631;29;20745;-77
2024/03/15 06:35:52;;;;;;;9.17;6.80;;;8.40;99.90;;;;;;4930710;28;20244;-77
2024/03/15 06:38:30;;;;;;;6.60;6.00;;;8.40;99.90;;;;;;4929461;28;20294;-77
2024/03/15 06:41:07;;;;;;;9.90;9.10;;;8.50;99.90;;;;;;4949424;28;20712;-77
2024/03/15 06:43:41;;;;;;;12.33;11.43;;;8.50;99.90;;;;;;4940543;28;20209;-77
2024/03/15 06:46:20;;;;;;;12.73;11.87;;;8.60;99.90;;;;;;4930549;29;20636;-78
2024/03/15 06:48:55;;;;;;;11.30;10.50;;;8.60;99.90;;;;;;4940149;28;20237;-77
2024/03/15 06:54:08;;;;;;;9.40;8.63;;;8.70;99.90;;;;;;4938255;28;20219;-77
2024/03/15 06:56:37;;;;;;;10.07;9.20;;;8.80;99.90;;;;;;4953377;28;20214;-77
2024/03/15 06:59:04;;;;;;;11.87;10.97;;;8.90;99.90;;;;;;4941658;29;20200;-77
2024/03/15 07:01:31;;;;;;;12.03;10.60;;;9.10;99.90;;;;;;4955171;28;20211;-76
2024/03/15 07:03:58;;;;;;;7.97;7.37;;;9.20;99.90;;;;;;4943132;28;20193;-76
2024/03/15 07:06:27;;;;;;;7.60;6.90;;;9.40;99.90;;;;;;4951400;28;20198;-78
2024/03/15 07:08:57;;;;;;;14.83;13.83;;;9.70;99.90;;;;;;4935437;28;20201;-78
2024/03/15 07:11:29;;;;;;;6.80;4.80;;;9.90;99.90;;;;;;4952793;28;20222;-79
2024/03/15 07:13:57;;;;;;;10.30;9.57;;;10.10;99.90;;;;;;4936167;29;20582;-78
2024/03/15 07:16:24;;;;;;;14.50;13.60;;;10.30;99.90;;;;;;4952366;28;20241;-78
2024/03/15 07:18:52;;;;;;;9.80;9.10;;;10.50;99.90;;;;;;4945828;28;20222;-78
2024/03/15 07:21:21;;;;;;;15.73;14.63;;;10.80;99.90;;;;;;4940650;28;20233;-78
2024/03/15 07:23:48;;;;;;;14.60;13.70;;;11.20;99.90;;;;;;4937162;28;20303;-78
2024/03/15 07:26:15;;;;;;;7.63;6.97;;;11.60;99.90;;;;;;4961465;28;20792;-77
2024/03/15 07:28:44;;;;;;;7.47;6.77;;;12.10;99.90;;;;;;4953611;28;20205;-77
2024/03/15 07:31:10;;;;;;;15.47;14.47;;;12.50;99.90;;;;;;4930455;29;20269;-78
2024/03/15 07:33:38;;;;;;;7.57;5.33;;;12.90;99.90;;;;;;4967697;28;20201;-78
2024/03/15 07:36:07;;;;;;;13.90;12.97;;;13.50;99.90;;;;;;4939351;29;20254;-78
2024/03/15 07:38:34;;;;;;;7.50;6.83;;;14.00;99.90;;;;;;4952394;28;20232;-77
2024/03/15 07:41:01;;;;;;;11.33;10.20;;;14.50;99.90;;;;;;4938661;29;20223;-78
2024/03/15 07:43:28;;;;;;;12.20;11.10;;;14.90;99.90;;;;;;4936327;28;20205;-79
2024/03/15 07:45:55;;;;;;;5.80;4.60;;;15.20;99.90;;;;;;4935794;28;20214;-80
2024/03/15 07:48:22;;;;;;;5.23;4.73;;;15.70;99.90;;;;;;4936310;28;20194;-79
2024/03/15 07:50:49;;;;;;;11.87;11.10;;;16.10;99.90;;;;;;4943906;28;20279;-79
2024/03/15 07:53:16;;;;;;;6.03;4.10;;;16.40;99.90;;;;;;4949546;28;20217;-79
2024/03/15 07:55:43;;;;;;;5.00;4.50;;;16.80;99.90;;;;;;4940684;28;20195;-80
2024/03/15 07:58:10;;;;;;;5.23;4.73;;;17.30;99.90;;;;;;4939780;28;20267;-79
2024/03/15 08:00:38;;;;;;;4.93;4.30;;;17.60;99.90;;;;;;4940116;28;20201;-79
2024/03/15 08:03:07;;;;;;;5.53;5.13;;;17.90;99.90;;;;;;4954384;28;20209;-79
2024/03/15 08:05:34;;;;;;;5.97;5.47;;;18.00;99.90;;;;;;4956740;28;20281;-79
2024/03/15 08:08:01;;;;;;;8.20;7.60;;;18.30;99.90;;;;;;4958239;28;20723;-79
2024/03/15 08:10:28;;;;;;;7.80;7.20;;;18.30;99.90;;;;;;4943262;28;20253;-79
2024/03/15 08:12:55;;;;;;;7.57;6.87;;;18.50;99.90;;;;;;4924972;28;20233;-80
2024/03/15 08:15:23;;;;;;;12.13;11.43;;;18.70;99.90;;;;;;4937609;28;20225;-79
2024/03/15 08:17:50;;;;;;;10.57;9.97;;;18.90;99.90;;;;;;4924625;28;20594;-78
2024/03/15 08:20:17;;;;;;;10.03;9.33;;;19.20;99.90;;;;;;4955433;28;20198;-79
2024/03/15 08:22:44;;;;;;;10.03;9.23;;;19.40;99.90;;;;;;4933529;28;20233;-79
2024/03/15 08:25:11;;;;;;;10.00;9.20;;;19.40;99.90;;;;;;4949638;28;20609;-80
2024/03/15 08:27:41;;;;;;;9.73;9.03;;;19.70;99.90;;;;;;4933593;28;20214;-80
2024/03/15 08:30:08;;;;;;;8.70;8.10;;;20.10;99.90;;;;;;4951022;28;20198;-80
2024/03/15 08:32:36;;;;;;;8.57;7.87;;;20.30;99.90;;;;;;4931561;29;20225;-79
2024/03/15 08:35:03;;;;;;;6.63;6.03;;;20.30;99.90;;;;;;4939862;29;20205;-79
2024/03/15 08:37:31;;;;;;;6.07;5.57;;;20.20;99.90;;;;;;4945542;28;20226;-80
2024/03/15 08:39:58;;;;;;;6.20;5.70;;;20.10;99.90;;;;;;4951128;28;20669;-79
2024/03/15 08:42:25;;;;;;;6.63;6.13;;;19.90;99.90;;;;;;4950171;28;20597;-79
2024/03/15 08:44:53;;;;;;;4.87;4.37;;;19.90;99.90;;;;;;4947569;28;20201;-79
2024/03/15 08:47:23;;;;;;;4.97;3.70;;;19.90;99.90;;;;;;4949690;28;20289;-79
2024/03/15 08:49:51;;;;;;;4.17;3.77;;;19.90;99.90;;;;;;4950248;28;20281;-81
2024/03/15 08:52:18;;;;;;;4.47;3.73;;;19.90;99.90;;;;;;4954145;28;20256;-79
2024/03/15 08:54:45;;;;;;;4.00;3.60;;;19.90;99.90;;;;;;4942350;28;20195;-79
2024/03/15 08:57:12;;;;;;;4.20;3.77;;;20.10;99.90;;;;;;4942555;29;20246;-79
2024/03/15 08:59:40;;;;;;;3.90;3.50;;;20.20;99.90;;;;;;4956654;28;20194;-79
2024/03/15 09:02:07;;;;;;;3.80;3.50;;;20.50;99.90;;;;;;4928334;29;20595;-79
2024/03/15 09:04:35;;;;;;;4.50;3.70;;;20.70;99.90;;;;;;4958167;28;20253;-80
2024/03/15 09:07:03;;;;;;;3.97;3.67;;;20.70;99.90;;;;;;4954591;28;20253;-79
2024/03/15 09:09:32;;;;;;;5.57;3.70;;;20.90;99.90;;;;;;4948736;28;20210;-79
2024/03/15 09:11:59;;;;;;;4.63;4.10;;;21.10;99.90;;;;;;4938557;28;20645;-80
2024/03/15 09:14:29;;;;;;;4.17;3.70;;;21.30;99.90;;;;;;4937963;29;20289;-78
2024/03/15 09:16:56;;;;;;;7.07;3.90;;;21.40;99.90;;;;;;4965325;28;20201;-79
2024/03/15 09:19:23;;;;;;;4.60;3.37;;;21.50;99.90;;;;;;4933816;28;20213;-78
2024/03/15 09:21:50;;;;;;;4.67;3.07;;;21.40;99.90;;;;;;4947961;28;20314;-78
2024/03/15 09:24:18;;;;;;;3.87;3.53;;;21.40;99.90;;;;;;4948529;28;20610;-78
2024/03/15 09:26:45;;;;;;;4.43;4.03;;;21.50;99.90;;;;;;4936503;28;20213;-78
2024/03/15 09:29:12;;;;;;;3.60;3.30;;;21.50;99.90;;;;;;4960945;28;20261;-80
2024/03/15 09:31:40;;;;;;;4.37;3.23;;;21.60;99.90;;;;;;4960508;28;20229;-80
2024/03/15 09:34:10;;;;;;;5.57;3.60;;;21.70;99.90;;;;;;4947832;28;20206;-81
2024/03/15 09:36:38;;;;;;;3.47;3.17;;;21.80;99.90;;;;;;4935640;28;20205;-81
2024/03/15 09:39:05;;;;;;;3.50;3.20;;;21.80;99.90;;;;;;4926673;28;20708;-81
2024/03/15 09:41:32;;;;;;;3.43;3.10;;;21.80;99.90;;;;;;4934578;28;20229;-79
2024/03/15 09:43:59;;;;;;;3.60;3.30;;;21.80;99.90;;;;;;4933809;28;20233;-79
2024/03/15 09:46:28;;;;;;;4.03;3.20;;;21.70;99.90;;;;;;4944615;28;20210;-78
2024/03/15 09:48:56;;;;;;;3.73;3.30;;;21.60;99.90;;;;;;4932410;28;20200;-78
2024/03/15 09:51:23;;;;;;;4.10;3.17;;;21.60;99.90;;;;;;4933690;28;20304;-78
2024/03/15 09:53:49;;;;;;;3.70;3.30;;;21.80;99.90;;;;;;4937769;28;20626;-78
2024/03/15 09:56:16;;;;;;;3.50;3.17;;;21.80;99.90;;;;;;4942959;28;20202;-78
2024/03/15 09:58:42;;;;;;;3.27;3.00;;;21.90;99.90;;;;;;4960179;28;20219;-79
2024/03/15 10:01:10;;;;;;;3.30;2.93;;;21.80;99.90;;;;;;4920364;29;20289;-78
2024/03/15 10:03:37;;;;;;;3.57;2.80;;;21.70;99.90;;;;;;4955589;28;20203;-79
2024/03/15 10:06:06;;;;;;;3.93;2.93;;;21.60;99.90;;;;;;4922902;28;20296;-79
2024/03/15 10:08:33;;;;;;;3.20;2.90;;;21.40;99.90;;;;;;4952291;28;20221;-79
2024/03/15 10:11:00;;;;;;;3.23;2.93;;;21.30;99.90;;;;;;4947723;28;20293;-79
2024/03/15 10:13:29;;;;;;;3.00;2.80;;;21.00;99.90;;;;;;4938109;28;20209;-79
2024/03/15 10:15:56;;;;;;;2.90;2.70;;;20.90;99.90;;;;;;4932641;28;20203;-79
2024/03/15 10:18:23;;;;;;;3.00;2.80;;;20.80;99.90;;;;;;4947127;28;20214;-79
2024/03/15 10:20:50;;;;;;;5.80;2.80;;;20.70;99.90;;;;;;4948243;28;20210;-78
2024/03/15 10:23:16;;;;;;;3.20;2.90;;;20.80;99.90;;;;;;4943805;28;20198;-78
2024/03/15 10:25:43;;;;;;;3.20;2.90;;;20.90;99.90;;;;;;4964099;28;20198;-79
2024/03/15 10:28:10;;;;;;;3.53;3.10;;;20.90;99.90;;;;;;4936294;28;20229;-78
2024/03/15 10:30:38;;;;;;;3.73;2.70;;;20.70;99.90;;;;;;4955401;28;20214;-79
2024/03/15 10:33:05;;;;;;;3.33;3.03;;;20.70;99.90;;;;;;4951414;28;20214;-79
2024/03/15 10:35:31;;;;;;;2.93;2.73;;;20.80;99.90;;;;;;4929078;28;20236;-78
2024/03/15 10:37:59;;;;;;;3.00;2.70;;;21.00;99.90;;;;;;4953827;28;20218;-80
2024/03/15 10:40:26;;;;;;;3.57;2.80;;;21.10;99.90;;;;;;4930208;28;20202;-80
2024/03/15 10:42:53;;;;;;;3.17;2.87;;;21.10;99.90;;;;;;4950043;28;20227;-80
2024/03/15 10:45:20;;;;;;;2.97;2.70;;;21.20;99.90;;;;;;4967428;28;20202;-80
2024/03/15 10:47:47;;;;;;;4.07;3.00;;;21.10;99.90;;;;;;4936687;28;20233;-80
2024/03/15 10:50:15;;;;;;;2.90;2.70;;;20.90;99.90;;;;;;4952433;28;20253;-84
2024/03/15 10:52:42;;;;;;;3.33;2.70;;;20.70;99.90;;;;;;4936810;29;20750;-85
2024/03/15 10:55:13;;;;;;;3.17;2.90;;;20.80;99.90;;;;;;4948188;28;20198;-81
2024/03/15 10:57:39;;;;;;;3.13;2.83;;;20.90;99.90;;;;;;4951102;28;20716;-81
2024/03/15 11:00:14;;;;;;;4.10;2.90;;;20.70;99.90;;;;;;4927777;28;20213;-82
2024/03/15 11:02:43;;;;;;;3.00;2.70;;;20.40;99.90;;;;;;4955519;28;20743;-81
2024/03/15 11:05:14;;;;;;;4.17;2.80;;;20.00;99.90;;;;;;4937749;28;20206;-80
2024/03/15 11:07:41;;;;;;;2.87;2.67;;;19.80;99.90;;;;;;4931262;29;20198;-78
2024/03/15 11:10:10;;;;;;;8.07;7.57;;;19.70;99.90;;;;;;4959766;28;20206;-77
2024/03/15 11:12:37;;;;;;;9.80;9.20;;;19.60;99.90;;;;;;4945555;28;20234;-77
2024/03/15 11:15:10;;;;;;;9.00;8.50;;;19.60;99.90;;;;;;4945581;28;20203;-77
2024/03/15 11:17:36;;;;;;;3.77;2.80;;;19.60;99.90;;;;;;4946751;28;20272;-78
2024/03/15 11:20:09;;;;;;;3.17;2.87;;;19.50;99.90;;;;;;4948313;28;20230;-78
2024/03/15 11:22:36;;;;;;;3.23;2.77;;;19.30;99.90;;;;;;4932594;29;20230;-77
2024/03/15 11:25:05;;;;;;;3.27;3.00;;;19.00;99.90;;;;;;4939270;28;20217;-77
2024/03/15 11:27:32;;;;;;;2.60;2.40;;;18.80;99.90;;;;;;4927126;29;20202;-77
2024/03/15 11:29:59;;;;;;;2.70;2.50;;;18.60;99.90;;;;;;4940834;28;20214;-77
2024/03/15 11:32:26;;;;;;;5.20;2.83;;;18.50;99.90;;;;;;4926756;28;20226;-78
2024/03/15 11:34:53;;;;;;;2.70;2.50;;;18.50;99.90;;;;;;4939323;28;20244;-78
2024/03/15 11:37:23;;;;;;;2.60;2.40;;;18.50;99.90;;;;;;4938370;28;20297;-77
2024/03/15 11:40:00;;;;;;;2.67;2.47;;;18.60;99.90;;;;;;4939902;29;20269;-81
2024/03/15 11:42:27;;;;;;;2.80;2.60;;;18.50;99.90;;;;;;4945253;28;20771;-81
2024/03/15 11:44:54;;;;;;;4.07;2.37;;;18.30;99.90;;;;;;4940454;29;20195;-81
2024/03/15 11:47:22;;;;;;;2.93;2.70;;;18.20;99.90;;;;;;4949991;28;20205;-81
2024/03/15 11:49:55;;;;;;;2.77;2.57;;;18.40;99.90;;;;;;4948740;29;20190;-81
2024/03/15 11:52:22;;;;;;;2.50;2.40;;;18.70;99.90;;;;;;4942875;28;20304;-82
2024/03/15 11:54:53;;;;;;;2.83;2.53;;;19.10;99.90;;;;;;4928107;28;20670;-81
2024/03/15 11:57:21;;;;;;;2.33;2.10;;;19.40;99.90;;;;;;4930285;28;20217;-81
2024/03/15 11:59:48;;;;;;;3.53;2.27;;;19.50;99.90;;;;;;4950089;28;20241;-82
2024/03/15 12:02:15;;;;;;;2.80;2.20;;;19.50;99.90;;;;;;4922758;28;20230;-81
2024/03/15 12:04:42;;;;;;;2.57;2.30;;;19.40;99.90;;;;;;4956819;28;20198;-81
2024/03/15 12:07:09;;;;;;;3.20;2.90;;;19.20;99.90;;;;;;4951412;28;20626;-81
2024/03/15 12:09:40;;;;;;;2.60;2.40;;;19.00;99.90;;;;;;4943497;28;20198;-81
2024/03/15 12:12:08;;;;;;;2.47;2.27;;;18.80;99.90;;;;;;4927720;28;20262;-81
2024/03/15 12:14:36;;;;;;;3.77;2.43;;;18.70;99.90;;;;;;4951663;28;20252;-82
2024/03/15 12:17:04;;;;;;;2.50;2.40;;;18.80;99.90;;;;;;4945354;28;20809;-81
2024/03/15 12:19:31;;;;;;;2.97;2.50;;;18.80;99.90;;;;;;4951694;28;20313;-84
2024/03/15 12:21:57;;;;;;;2.73;2.47;;;18.90;99.90;;;;;;4952202;28;20241;-80
2024/03/15 12:24:24;;;;;;;2.60;2.40;;;19.00;99.90;;;;;;4950298;28;20256;-81
2024/03/15 12:26:51;;;;;;;2.80;2.50;;;19.00;99.90;;;;;;4938458;29;20202;-81
2024/03/15 12:29:20;;;;;;;2.50;2.30;;;19.00;99.90;;;;;;4966498;28;20287;-81
2024/03/15 12:31:47;;;;;;;4.27;2.60;;;19.00;99.90;;;;;;4952496;28;20272;-81
2024/03/15 12:34:14;;;;;;;2.77;2.57;;;19.00;99.90;;;;;;4939078;28;20673;-81
2024/03/15 12:36:41;;;;;;;2.77;2.57;;;18.90;99.90;;;;;;4924448;29;20206;-81
2024/03/15 12:39:09;;;;;;;2.90;2.70;;;18.80;99.90;;;;;;4938481;28;20712;-82
2024/03/15 12:41:36;;;;;;;2.70;2.50;;;18.60;99.90;;;;;;4945987;28;20234;-81
2024/03/15 12:44:04;;;;;;;4.53;2.50;;;18.40;99.90;;;;;;4938566;28;20218;-81